Time;durP1;ratioP1;P1;durP2;ratioP2;P2;SDS_P1;SDS_P2;PMS_P1;PMS_P2;Temp;Humidity;BMP_temperature;BMP_pressure;BME280_temperature;BME280_humidity;BME280_pressure;Samples;Min_cycle;Max_cycle;Signal;HPM_P1;HPM_P2
2023/06/19 00:00:44;;;;;;;;;;;22.40;74.80;;;;;;5062394;28;20041;-50
2023/06/19 00:03:10;;;;;;;7.93;6.45;;;22.40;74.50;;;;;;5069596;28;19943;-50
2023/06/19 00:05:35;;;;;;;;;;;22.50;74.50;;;;;;5063863;28;20383;-54
2023/06/19 00:08:03;;;;;;;6.85;6.03;;;22.50;74.20;;;;;;5070886;28;20066;-50
2023/06/19 00:10:29;;;;;;;9.57;6.28;;;22.50;74.00;;;;;;5079431;28;20112;-54
2023/06/19 00:12:54;;;;;;;;;;;22.50;74.00;;;;;;5050341;28;20120;-49
2023/06/19 00:15:20;;;;;;;12.77;6.53;;;22.50;73.80;;;;;;5055606;28;19986;-50
2023/06/19 00:17:45;;;;;;;6.65;6.03;;;22.50;73.60;;;;;;5072834;28;20045;-52
2023/06/19 00:20:13;;;;;;;9.00;6.75;;;22.50;73.60;;;;;;5072911;28;20048;-53
2023/06/19 00:22:39;;;;;;;7.97;6.18;;;22.60;73.60;;;;;;5053319;28;20444;-49
2023/06/19 00:25:04;;;;;;;;;;;22.60;73.40;;;;;;5054102;28;20041;-50
2023/06/19 00:27:30;;;;;;;6.55;5.95;;;22.70;73.20;;;;;;5070278;28;20262;-49
2023/06/19 00:30:01;;;;;;;6.30;5.80;;;22.60;73.20;;;;;;5073443;28;20044;-54
2023/06/19 00:32:30;;;;;;;7.13;6.15;;;22.60;73.10;;;;;;5055166;28;20045;-49
2023/06/19 00:34:56;;;;;;;7.25;6.60;;;22.70;73.30;;;;;;5052943;28;20044;-50
2023/06/19 00:37:22;;;;;;;10.35;6.63;;;22.60;73.70;;;;;;5054053;28;20037;-51
2023/06/19 00:39:47;;;;;;;;;;;22.60;73.20;;;;;;5053613;28;20299;-49
2023/06/19 00:42:13;;;;;;;6.47;5.80;;;22.60;73.00;;;;;;5068085;28;19983;-49
2023/06/19 00:44:39;;;;;;;6.80;6.03;;;22.60;72.80;;;;;;5072846;28;20033;-54
2023/06/19 00:47:05;;;;;;;26.65;7.55;;;22.60;73.30;;;;;;5059958;28;20045;-50
2023/06/19 00:49:31;;;;;;;;;;;22.60;73.30;;;;;;5071639;28;20040;-50
2023/06/19 00:51:57;;;;;;;6.93;6.22;;;22.60;73.20;;;;;;5070438;28;19916;-53
2023/06/19 00:54:23;;;;;;;9.30;6.38;;;22.50;73.00;;;;;;5066993;28;20037;-51
2023/06/19 00:56:49;;;;;;;;;;;22.50;73.30;;;;;;5054197;28;20033;-52
2023/06/19 00:59:17;;;;;;;7.85;5.90;;;22.50;73.20;;;;;;5065219;28;20302;-50
2023/06/19 01:01:43;;;;;;;7.88;6.40;;;22.50;73.10;;;;;;5064631;28;20072;-50
2023/06/19 01:04:08;;;;;;;;;;;22.50;73.40;;;;;;5072170;28;20074;-51
2023/06/19 01:06:50;;;;;;;9.82;6.60;;;22.40;73.70;;;;;;5070734;28;19964;-50
2023/06/19 01:09:18;;;;;;;6.30;5.80;;;22.40;73.80;;;;;;5063295;28;20033;-50
2023/06/19 01:11:48;;;;;;;11.98;7.45;;;22.40;73.90;;;;;;5059561;28;20072;-50
2023/06/19 01:14:39;;;;;;;6.45;5.80;;;22.30;74.00;;;;;;5072540;28;20069;-50
2023/06/19 01:17:06;;;;;;;7.80;6.78;;;22.30;74.10;;;;;;5063345;28;20428;-49
2023/06/19 01:19:31;;;;;;;6.88;6.15;;;22.30;74.40;;;;;;5071785;28;20626;-50
2023/06/19 01:21:57;;;;;;;;;;;22.20;74.70;;;;;;5065363;28;20041;-52
2023/06/19 01:24:23;;;;;;;8.45;6.75;;;22.20;75.10;;;;;;5051825;28;19916;-52
2023/06/19 01:26:48;;;;;;;;;;;22.10;74.70;;;;;;5062501;28;20063;-51
2023/06/19 01:29:18;;;;;;;21.60;6.28;;;22.20;75.00;;;;;;5071333;28;19932;-50
2023/06/19 01:32:04;;;;;;;18.05;8.23;;;22.10;75.40;;;;;;5067115;28;20521;-52
2023/06/19 01:34:30;;;;;;;14.77;6.65;;;22.00;75.60;;;;;;5051942;28;20117;-53
2023/06/19 01:36:57;;;;;;;9.10;6.32;;;22.00;75.70;;;;;;5059444;28;20041;-51
2023/06/19 01:39:24;;;;;;;7.05;5.60;;;22.00;76.00;;;;;;5051950;28;20032;-49
2023/06/19 01:41:51;;;;;;;7.05;6.25;;;21.90;76.10;;;;;;5054714;28;20032;-50
2023/06/19 01:44:17;;;;;;;6.70;5.63;;;21.90;76.10;;;;;;5071444;28;20543;-51
2023/06/19 01:46:42;;;;;;;;;;;21.90;76.00;;;;;;5070285;28;20036;-49
2023/06/19 01:49:09;;;;;;;6.75;6.15;;;21.90;76.40;;;;;;5071469;28;19924;-52
2023/06/19 01:51:35;;;;;;;6.78;6.20;;;21.80;76.30;;;;;;5070670;28;20078;-53
2023/06/19 01:54:01;;;;;;;8.82;6.97;;;21.80;76.60;;;;;;5050941;28;20040;-49
2023/06/19 01:56:27;;;;;;;;;;;21.80;76.70;;;;;;5050561;28;20041;-49
2023/06/19 01:58:55;;;;;;;32.15;7.85;;;21.80;77.30;;;;;;5069258;28;19916;-52
2023/06/19 02:01:20;;;;;;;56.78;10.98;;;21.70;77.10;;;;;;5071394;28;20471;-50
2023/06/19 02:03:46;;;;;;;;;;;21.70;77.40;;;;;;5069241;28;20063;-50
2023/06/19 02:06:12;;;;;;;46.88;8.52;;;21.70;77.70;;;;;;5070973;28;19922;-49
2023/06/19 02:08:37;;;;;;;8.07;7.18;;;21.60;77.60;;;;;;5065552;28;20067;-50
2023/06/19 02:11:03;;;;;;;;;;;21.60;77.80;;;;;;5052533;28;20040;-50
2023/06/19 02:13:28;;;;;;;6.43;5.82;;;21.60;78.00;;;;;;5052436;28;19917;-53
2023/06/19 02:15:54;;;;;;;;;;;21.60;77.80;;;;;;5056693;28;20075;-49
2023/06/19 02:18:20;;;;;;;6.32;5.75;;;21.60;78.00;;;;;;5059821;28;19916;-49
2023/06/19 02:20:45;;;;;;;;;;;21.60;77.70;;;;;;5051443;28;20041;-51
2023/06/19 02:23:11;;;;;;;9.68;7.05;;;21.70;78.00;;;;;;5059583;28;19982;-53
2023/06/19 02:25:36;;;;;;;;;;;21.80;77.80;;;;;;5071362;28;20104;-49
2023/06/19 02:28:03;;;;;;;7.50;6.43;;;21.80;77.90;;;;;;5063514;28;19917;-50
2023/06/19 02:30:29;;;;;;;6.95;6.35;;;22.00;77.80;;;;;;5051214;28;20041;-49
2023/06/19 02:32:54;;;;;;;;;;;22.00;77.70;;;;;;5052173;28;20523;-49
2023/06/19 02:35:20;;;;;;;7.32;6.38;;;22.00;78.10;;;;;;5050735;28;19916;-51
2023/06/19 02:37:47;;;;;;;9.23;6.93;;;22.00;77.80;;;;;;5051893;28;20049;-52
2023/06/19 02:40:14;;;;;;;7.40;6.43;;;22.10;78.20;;;;;;5070267;28;20551;-50
2023/06/19 02:42:40;;;;;;;7.80;6.35;;;22.10;78.30;;;;;;5068591;28;20045;-52
2023/06/19 02:45:05;;;;;;;;;;;22.10;78.40;;;;;;5071084;28;20036;-49
2023/06/19 02:47:31;;;;;;;6.30;5.80;;;22.10;78.70;;;;;;5069518;28;19916;-50
2023/06/19 02:50:02;;;;;;;6.57;5.85;;;22.10;78.60;;;;;;5050540;28;20041;-49
2023/06/19 02:52:28;;;;;;;5.93;5.32;;;22.10;78.70;;;;;;5049967;28;20448;-50
2023/06/19 02:54:53;;;;;;;;;;;22.10;78.90;;;;;;5049935;28;20037;-49
2023/06/19 02:57:19;;;;;;;10.98;5.70;;;22.10;79.40;;;;;;5049779;28;19917;-49
2023/06/19 02:59:45;;;;;;;;;;;22.10;79.20;;;;;;5067847;28;20048;-50
2023/06/19 03:02:11;;;;;;;6.15;5.65;;;22.10;79.70;;;;;;5070056;28;20458;-50
2023/06/19 03:04:37;;;;;;;;;;;22.00;79.50;;;;;;5068844;28;20040;-52
2023/06/19 03:07:03;;;;;;;6.40;5.60;;;22.00;80.10;;;;;;5069504;28;20351;-50
2023/06/19 03:09:28;;;;;;;;;;;22.00;80.00;;;;;;5056077;28;20059;-51
2023/06/19 03:11:54;;;;;;;11.50;5.95;;;22.00;80.90;;;;;;5050343;28;19959;-49
2023/06/19 03:14:20;;;;;;;;;;;22.00;80.30;;;;;;5063411;28;20040;-49
2023/06/19 03:16:45;;;;;;;5.35;4.85;;;21.90;80.70;;;;;;5069695;28;19938;-51
2023/06/19 03:19:11;;;;;;;6.20;5.60;;;21.90;80.70;;;;;;5058417;28;20037;-51
2023/06/19 03:21:36;;;;;;;10.07;5.97;;;21.90;80.90;;;;;;5049513;28;20037;-51
2023/06/19 03:24:03;;;;;;;6.50;5.90;;;21.90;81.10;;;;;;5057414;28;20044;-50
2023/06/19 03:26:28;;;;;;;7.00;6.13;;;21.80;81.20;;;;;;5069927;28;20047;-49
2023/06/19 03:28:54;;;;;;;;;;;21.80;81.30;;;;;;5062475;28;20037;-50
2023/06/19 03:31:20;;;;;;;6.50;4.97;;;21.80;82.10;;;;;;5049814;28;20301;-50
2023/06/19 03:33:45;;;;;;;;;;;21.80;81.70;;;;;;5051324;28;20497;-50
2023/06/19 03:36:11;;;;;;;7.45;4.82;;;21.80;82.40;;;;;;5049371;28;20393;-52
2023/06/19 03:38:36;;;;;;;;;;;21.80;81.90;;;;;;5053932;28;20504;-51
2023/06/19 03:41:02;;;;;;;7.03;5.03;;;21.70;82.50;;;;;;5070049;28;20450;-50
2023/06/19 03:43:27;;;;;;;;;;;21.80;82.70;;;;;;5068433;28;20040;-50
2023/06/19 03:45:53;;;;;;;5.35;4.85;;;21.70;82.90;;;;;;5069883;28;20302;-50
2023/06/19 03:48:19;;;;;;;5.55;5.05;;;21.70;82.50;;;;;;5070102;28;20032;-49
2023/06/19 03:50:44;;;;;;;;;;;21.70;82.90;;;;;;5053890;28;20045;-49
2023/06/19 03:53:10;;;;;;;6.55;4.90;;;21.70;83.30;;;;;;5053817;28;19920;-51
2023/06/19 03:55:35;;;;;;;;;;;21.70;83.00;;;;;;5072127;28;20397;-51
2023/06/19 03:58:01;;;;;;;6.18;4.97;;;21.60;83.50;;;;;;5073411;28;20434;-49
2023/06/19 04:00:27;;;;;;;;;;;21.60;83.30;;;;;;5057895;28;20036;-49
2023/06/19 04:02:52;;;;;;;9.43;5.40;;;21.60;83.90;;;;;;5053432;28;20334;-52
2023/06/19 04:05:19;;;;;;;;;;;21.60;83.70;;;;;;5054577;28;20038;-54
2023/06/19 04:07:45;;;;;;;7.20;4.25;;;21.60;84.20;;;;;;5053566;28;19921;-50
2023/06/19 04:10:11;;;;;;;;;;;21.60;84.70;;;;;;5066104;28;20473;-50
2023/06/19 04:12:37;;;;;;;10.00;3.97;;;21.60;84.60;;;;;;5054422;28;19924;-50
2023/06/19 04:15:04;;;;;;;5.15;4.65;;;21.60;84.10;;;;;;5055681;28;20478;-50
2023/06/19 04:17:29;;;;;;;5.85;5.25;;;21.50;84.50;;;;;;5066668;28;20044;-49
2023/06/19 04:19:55;;;;;;;;;;;21.50;84.80;;;;;;5064008;28;20052;-52
2023/06/19 04:22:20;;;;;;;4.28;3.88;;;21.50;85.10;;;;;;5053380;28;19924;-52
2023/06/19 04:24:46;;;;;;;;;;;21.40;84.80;;;;;;5060950;28;20064;-50
2023/06/19 04:27:11;;;;;;;4.75;3.95;;;21.40;85.30;;;;;;5072753;28;20361;-50
2023/06/19 04:29:37;;;;;;;;;;;21.30;85.10;;;;;;5066525;28;20494;-54
2023/06/19 04:32:10;;;;;;;10.73;3.95;;;21.30;85.60;;;;;;5053075;28;19991;-49
2023/06/19 04:34:37;;;;;;;7.65;4.43;;;21.30;85.40;;;;;;5057389;28;20043;-50
2023/06/19 04:37:02;;;;;;;5.05;3.97;;;21.30;86.10;;;;;;5072717;28;20044;-49
2023/06/19 04:39:28;;;;;;;;;;;21.20;86.40;;;;;;5069048;28;20395;-49
2023/06/19 04:41:53;;;;;;;4.70;4.20;;;21.20;86.80;;;;;;5052970;28;19917;-50
2023/06/19 04:44:19;;;;;;;;;;;21.20;87.20;;;;;;5055083;28;20115;-52
2023/06/19 04:46:44;;;;;;;3.92;3.38;;;21.30;87.60;;;;;;5052613;28;20367;-49
2023/06/19 04:49:10;;;;;;;;;;;21.30;87.10;;;;;;5052521;28;20486;-51
2023/06/19 04:51:36;;;;;;;4.43;3.53;;;21.20;87.60;;;;;;5072193;28;19917;-53
2023/06/19 04:54:02;;;;;;;;;;;21.30;87.80;;;;;;5073161;28;20127;-51
2023/06/19 04:56:28;;;;;;;4.00;3.60;;;21.30;88.20;;;;;;5054036;28;19916;-52
2023/06/19 04:58:59;;;;;;;6.68;3.40;;;21.20;87.90;;;;;;5051722;28;20037;-50
2023/06/19 05:01:27;;;;;;;4.10;2.88;;;21.20;88.40;;;;;;5070066;28;20032;-50
2023/06/19 05:03:54;;;;;;;3.33;3.00;;;21.20;88.90;;;;;;5071848;28;20413;-52
2023/06/19 05:06:23;;;;;;;8.73;3.08;;;21.20;89.20;;;;;;5055466;28;20051;-52
2023/06/19 05:08:49;;;;;;;6.18;3.10;;;21.20;89.90;;;;;;5052071;28;20037;-50
2023/06/19 05:11:14;;;;;;;;;;;21.10;90.20;;;;;;5068030;28;20056;-49
2023/06/19 05:13:40;;;;;;;8.07;3.72;;;21.00;90.80;;;;;;5072418;28;19923;-54
2023/06/19 05:16:05;;;;;;;;;;;20.90;91.30;;;;;;5070357;28;20131;-50
2023/06/19 05:18:31;;;;;;;2.50;2.30;;;20.90;91.90;;;;;;5072153;28;19970;-52
2023/06/19 05:20:57;;;;;;;;;;;20.80;92.20;;;;;;5060908;28;20067;-51
2023/06/19 05:23:22;;;;;;;3.50;3.20;;;20.70;93.20;;;;;;5052130;28;19924;-52
2023/06/19 05:25:48;;;;;;;;;;;20.80;92.80;;;;;;5053734;28;20498;-51
2023/06/19 05:28:13;;;;;;;3.47;3.28;;;20.70;93.60;;;;;;5051725;28;20381;-54
2023/06/19 05:30:39;;;;;;;;;;;20.70;93.90;;;;;;5052755;28;20040;-52
2023/06/19 05:33:04;;;;;;;4.70;2.90;;;20.80;94.10;;;;;;5059069;28;19924;-53
2023/06/19 05:35:30;;;;;;;;;;;20.80;94.30;;;;;;5066356;28;20032;-50
2023/06/19 05:37:56;;;;;;;4.60;3.33;;;20.80;95.40;;;;;;5062600;28;19923;-49
2023/06/19 05:40:21;;;;;;;;;;;20.80;94.90;;;;;;5052517;28;20490;-50
2023/06/19 05:42:47;;;;;;;2.80;2.60;;;20.90;95.90;;;;;;5062809;28;20348;-54
2023/06/19 05:45:12;;;;;;;;;;;20.90;95.80;;;;;;5053337;28;20047;-54
2023/06/19 05:47:38;;;;;;;3.40;3.10;;;20.90;97.00;;;;;;5070825;28;19920;-50
2023/06/19 05:50:03;;;;;;;;;;;20.90;96.00;;;;;;5069648;28;20037;-52
2023/06/19 05:52:29;;;;;;;3.80;3.33;;;21.00;96.40;;;;;;5054790;28;20445;-53
2023/06/19 05:54:55;;;;;;;;;;;21.00;95.90;;;;;;5069303;28;20060;-52
2023/06/19 05:57:20;;;;;;;5.85;3.20;;;21.00;96.50;;;;;;5062874;28;19924;-50
2023/06/19 05:59:46;;;;;;;;;;;21.10;96.00;;;;;;5071210;28;20048;-52
2023/06/19 06:02:12;;;;;;;5.22;4.03;;;21.10;96.50;;;;;;5055864;28;20427;-50
2023/06/19 06:04:37;;;;;;;;;;;21.20;96.50;;;;;;5051890;28;20148;-52
2023/06/19 06:07:03;;;;;;;5.05;3.53;;;21.20;97.80;;;;;;5052364;28;19939;-49
2023/06/19 06:09:29;;;;;;;;;;;21.30;96.70;;;;;;5065148;28;20044;-50
2023/06/19 06:11:54;;;;;;;3.63;3.40;;;21.30;96.70;;;;;;5063165;28;19920;-50
2023/06/19 06:14:20;;;;;;;;;;;21.30;96.00;;;;;;5053431;28;20036;-53
2023/06/19 06:16:45;;;;;;;4.25;3.20;;;21.30;97.10;;;;;;5056588;28;20019;-51
2023/06/19 06:19:11;;;;;;;;;;;21.20;96.40;;;;;;5057313;28;20033;-49
2023/06/19 06:21:36;;;;;;;8.13;3.88;;;21.20;97.60;;;;;;5061780;28;20069;-50
2023/06/19 06:24:02;;;;;;;;;;;21.20;97.50;;;;;;5056891;28;20128;-54
2023/06/19 06:26:28;;;;;;;3.45;3.13;;;21.10;97.90;;;;;;5057336;28;19916;-50
2023/06/19 06:28:54;;;;;;;;;;;21.10;98.10;;;;;;5063761;28;20053;-50
2023/06/19 06:31:20;;;;;;;3.90;3.70;;;21.10;98.60;;;;;;5065085;28;20321;-50
2023/06/19 06:33:45;;;;;;;;;;;21.10;98.30;;;;;;5069644;28;20028;-50
2023/06/19 06:36:11;;;;;;;7.60;3.53;;;21.10;99.10;;;;;;5066345;28;19917;-52
2023/06/19 06:38:36;;;;;;;;;;;21.10;98.70;;;;;;5064544;28;20029;-52
2023/06/19 06:41:02;;;;;;;5.07;3.75;;;21.10;99.40;;;;;;5066587;28;20448;-50
2023/06/19 06:43:28;;;;;;;;;;;21.10;99.20;;;;;;5058160;28;20181;-49
2023/06/19 06:45:53;;;;;;;4.40;3.97;;;21.10;99.90;;;;;;5056882;28;20025;-50
2023/06/19 06:48:20;;;;;;;;;;;21.20;99.50;;;;;;5056818;28;20033;-52
2023/06/19 06:50:46;;;;;;;4.05;3.63;;;21.20;99.90;;;;;;5059069;28;20309;-51
2023/06/19 06:53:11;;;;;;;;;;;21.20;99.80;;;;;;5058765;28;20033;-54
2023/06/19 06:55:37;;;;;;;6.13;2.95;;;21.20;99.90;;;;;;5059102;28;20003;-54
2023/06/19 06:58:03;;;;;;;;;;;21.20;99.90;;;;;;5050814;28;20049;-50
2023/06/19 07:00:29;;;;;;;7.97;3.83;;;21.20;99.90;;;;;;5060905;28;20015;-53
2023/06/19 07:02:54;;;;;;;4.95;4.20;;;21.30;99.80;;;;;;5056491;28;20068;-49
2023/06/19 07:05:20;;;;;;;;;;;21.30;99.70;;;;;;5070354;28;20068;-50
2023/06/19 07:07:46;;;;;;;7.28;3.53;;;21.30;99.90;;;;;;5063547;28;19959;-51
2023/06/19 07:10:11;;;;;;;;;;;21.30;99.90;;;;;;5070606;28;20068;-52
2023/06/19 07:12:45;;;;;;;3.95;3.55;;;21.30;99.90;;;;;;5061523;28;20345;-50
2023/06/19 07:15:11;;;;;;;6.72;4.40;;;21.30;99.90;;;;;;5056869;28;20477;-54
2023/06/19 07:17:37;;;;;;;5.20;4.55;;;21.30;99.70;;;;;;5055785;28;20044;-52
2023/06/19 07:20:03;;;;;;;;;;;21.30;99.90;;;;;;5058153;28;20430;-49
2023/06/19 07:22:28;;;;;;;4.72;4.38;;;21.30;99.90;;;;;;5058423;28;19916;-49
2023/06/19 07:24:54;;;;;;;;;;;21.30;99.90;;;;;;5063675;28;20083;-51
2023/06/19 07:27:20;;;;;;;4.53;4.13;;;21.40;99.90;;;;;;5059872;28;20011;-50
2023/06/19 07:29:45;;;;;;;;;;;21.40;99.90;;;;;;5058300;28;20053;-52
2023/06/19 07:32:11;;;;;;;6.57;4.60;;;21.50;99.90;;;;;;5048995;28;19936;-50
2023/06/19 07:34:36;;;;;;;;;;;21.40;99.90;;;;;;5055504;28;20795;-50
2023/06/19 07:37:02;;;;;;;6.07;4.57;;;21.40;99.90;;;;;;5053916;28;19917;-55
2023/06/19 07:39:28;;;;;;;;;;;21.40;99.90;;;;;;5050592;28;20059;-54
2023/06/19 07:41:53;;;;;;;12.60;5.28;;;21.30;99.90;;;;;;5053409;28;19924;-55
2023/06/19 07:44:20;;;;;;;;;;;21.30;99.90;;;;;;5050076;28;20123;-50
2023/06/19 07:46:46;;;;;;;5.13;4.28;;;21.20;99.90;;;;;;5048474;28;19940;-52
2023/06/19 07:49:12;;;;;;;;;;;21.20;99.90;;;;;;5049402;28;20103;-50
2023/06/19 07:51:37;;;;;;;6.70;4.07;;;21.30;99.90;;;;;;5048349;28;19924;-53
2023/06/19 07:54:03;;;;;;;;;;;21.50;99.90;;;;;;5051133;28;20112;-57
2023/06/19 07:56:28;;;;;;;5.63;5.13;;;21.60;99.90;;;;;;5055703;28;20447;-51
2023/06/19 07:58:54;;;;;;;;;;;21.60;99.90;;;;;;5052925;28;20615;-50
2023/06/19 08:01:19;;;;;;;3.88;3.58;;;21.60;99.90;;;;;;5055623;28;19916;-50
2023/06/19 08:03:45;;;;;;;;;;;21.60;99.60;;;;;;5051932;28;20642;-53
2023/06/19 08:06:11;;;;;;;6.35;4.60;;;21.50;99.70;;;;;;5055573;28;19963;-56
2023/06/19 08:08:36;;;;;;;;;;;21.40;99.60;;;;;;5052098;28;20025;-51
2023/06/19 08:11:02;;;;;;;6.07;4.70;;;21.40;99.90;;;;;;5050410;28;19955;-50
2023/06/19 08:13:28;;;;;;;5.22;4.80;;;21.30;99.90;;;;;;5053129;28;20316;-50
2023/06/19 08:15:53;;;;;;;;;;;21.30;99.90;;;;;;5052514;28;20390;-53
2023/06/19 08:18:19;;;;;;;5.85;5.45;;;21.30;99.90;;;;;;5054344;28;19916;-55
2023/06/19 08:20:45;;;;;;;;;;;21.20;99.90;;;;;;5050706;28;20060;-50
2023/06/19 08:23:10;;;;;;;8.30;6.82;;;21.10;99.90;;;;;;5053045;28;19917;-50
2023/06/19 08:25:36;;;;;;;;;;;21.10;99.90;;;;;;5050881;28;20040;-57
2023/06/19 08:28:02;;;;;;;7.95;7.20;;;21.10;99.90;;;;;;5049509;28;20064;-56
2023/06/19 08:30:27;;;;;;;;;;;21.00;99.90;;;;;;5053397;28;20068;-50
2023/06/19 08:32:53;;;;;;;9.52;7.88;;;21.00;99.90;;;;;;5052024;28;19951;-51
2023/06/19 08:35:18;;;;;;;;;;;21.00;99.90;;;;;;5053720;28;20032;-54
2023/06/19 08:37:44;;;;;;;10.07;9.02;;;21.00;99.90;;;;;;5055495;28;20243;-55
2023/06/19 08:40:11;;;;;;;;;;;21.00;99.90;;;;;;5054467;28;20052;-55
2023/06/19 08:42:38;;;;;;;10.75;8.35;;;20.90;99.90;;;;;;5050748;28;19927;-53
2023/06/19 08:45:06;;;;;;;7.90;7.10;;;21.00;99.90;;;;;;5052952;28;20048;-53
2023/06/19 08:47:33;;;;;;;9.02;8.23;;;21.00;99.90;;;;;;5052608;28;20052;-51
2023/06/19 08:49:59;;;;;;;9.23;8.25;;;21.10;99.90;;;;;;5054109;28;20506;-53
2023/06/19 08:52:24;;;;;;;;;;;21.10;99.90;;;;;;5054400;28;20074;-50
2023/06/19 08:54:50;;;;;;;8.40;7.65;;;21.10;99.90;;;;;;5055139;28;19962;-53
2023/06/19 08:57:16;;;;;;;;;;;21.20;99.90;;;;;;5052852;28;20084;-53
2023/06/19 08:59:50;;;;;;;7.95;6.80;;;21.20;99.90;;;;;;5054528;28;19917;-50
2023/06/19 09:02:15;;;;;;;7.68;6.57;;;21.20;99.90;;;;;;5051941;28;20455;-50
2023/06/19 09:04:41;;;;;;;;;;;21.20;99.90;;;;;;5049957;28;20033;-52
2023/06/19 09:07:08;;;;;;;8.50;7.45;;;21.20;99.90;;;;;;5052552;28;19916;-54
2023/06/19 09:09:34;;;;;;;8.38;7.22;;;21.20;99.90;;;;;;5051667;28;20044;-54
2023/06/19 09:12:07;;;;;;;;;;;21.20;99.90;;;;;;5053354;28;20037;-54
2023/06/19 09:14:33;;;;;;;9.00;6.88;;;21.20;99.90;;;;;;5054232;28;19923;-51
2023/06/19 09:16:59;;;;;;;9.18;7.68;;;21.20;99.90;;;;;;5053731;28;20177;-56
2023/06/19 09:19:24;;;;;;;;;;;21.20;99.90;;;;;;5055480;28;20127;-56
2023/06/19 09:21:51;;;;;;;7.85;7.25;;;21.20;99.90;;;;;;5048340;28;19917;-54
2023/06/19 09:24:16;;;;;;;8.18;7.20;;;21.20;99.90;;;;;;5055955;28;20452;-53
2023/06/19 09:26:42;;;;;;;;;;;21.40;99.90;;;;;;5055319;28;20102;-53
2023/06/19 09:29:18;;;;;;;7.35;6.68;;;21.40;99.90;;;;;;5053262;28;20139;-55
2023/06/19 09:31:43;;;;;;;8.25;7.45;;;21.50;99.90;;;;;;5049216;28;20099;-52
2023/06/19 09:34:09;;;;;;;;;;;21.60;99.90;;;;;;5049994;28;20124;-50
2023/06/19 09:36:35;;;;;;;7.25;6.43;;;21.70;99.90;;;;;;5051935;28;20027;-53
2023/06/19 09:39:02;;;;;;;7.07;6.38;;;21.70;99.90;;;;;;5052435;28;20374;-56
2023/06/19 09:41:29;;;;;;;9.18;7.55;;;21.70;99.40;;;;;;5052687;28;20451;-54
2023/06/19 09:43:59;;;;;;;8.00;7.20;;;21.80;99.90;;;;;;5054794;28;20040;-52
2023/06/19 09:46:31;;;;;;;10.43;9.43;;;22.00;99.30;;;;;;5054513;28;20092;-54
2023/06/19 09:49:01;;;;;;;13.32;9.23;;;22.20;98.00;;;;;;5054263;28;20044;-54
2023/06/19 09:51:33;;;;;;;11.50;10.27;;;22.30;97.00;;;;;;5049923;28;20336;-52
2023/06/19 09:54:02;;;;;;;11.40;10.40;;;22.30;96.70;;;;;;5053474;28;20048;-54
2023/06/19 09:56:27;;;;;;;10.52;9.52;;;22.40;96.50;;;;;;5056563;28;20036;-51
2023/06/19 09:58:54;;;;;;;;;;;22.50;96.70;;;;;;5053938;28;20040;-53
2023/06/19 10:01:20;;;;;;;11.00;9.95;;;22.60;96.40;;;;;;5069969;28;19920;-50
2023/06/19 10:03:46;;;;;;;10.27;9.23;;;22.70;95.80;;;;;;5055286;28;20389;-56
2023/06/19 10:06:16;;;;;;;;;;;22.80;95.60;;;;;;5055669;28;20381;-52
2023/06/19 10:08:44;;;;;;;11.68;9.43;;;22.90;94.30;;;;;;5050285;28;19936;-53
2023/06/19 10:11:10;;;;;;;10.48;9.60;;;22.90;95.10;;;;;;5052640;28;20041;-50
2023/06/19 10:13:40;;;;;;;11.38;10.40;;;22.90;94.80;;;;;;5052254;28;20033;-56
2023/06/19 10:16:07;;;;;;;10.85;9.90;;;23.00;94.60;;;;;;5056805;28;20041;-54
2023/06/19 10:18:46;;;;;;;10.75;9.48;;;23.00;95.00;;;;;;5053759;28;20375;-49
2023/06/19 10:21:21;;;;;;;11.98;10.73;;;23.10;94.50;;;;;;5052565;28;20048;-51
2023/06/19 10:23:55;;;;;;;12.88;10.52;;;23.20;93.80;;;;;;5050585;28;20238;-55
2023/06/19 10:26:30;;;;;;;9.88;8.88;;;23.10;94.10;;;;;;5054479;28;20056;-51
2023/06/19 10:28:55;;;;;;;11.15;8.55;;;23.10;93.90;;;;;;5052153;28;20768;-50
2023/06/19 10:31:21;;;;;;;9.18;8.38;;;23.10;94.30;;;;;;5047863;28;20112;-55
2023/06/19 10:33:46;;;;;;;10.40;7.70;;;23.10;94.30;;;;;;5050693;28;20410;-53
2023/06/19 10:36:22;;;;;;;7.25;6.65;;;23.10;94.20;;;;;;5052687;28;20060;-50
2023/06/19 10:38:49;;;;;;;8.07;6.20;;;23.10;94.10;;;;;;5054353;28;20139;-55
2023/06/19 10:41:20;;;;;;;10.05;8.82;;;23.10;94.10;;;;;;5054036;28;20055;-49
2023/06/19 10:44:08;;;;;;;8.93;7.55;;;23.00;94.10;;;;;;5049570;28;20037;-54
2023/06/19 10:46:36;;;;;;;12.85;7.20;;;23.10;94.10;;;;;;5055160;28;20412;-53
2023/06/19 10:49:04;;;;;;;9.52;7.72;;;23.10;93.80;;;;;;5047711;28;20560;-50
2023/06/19 10:51:40;;;;;;;11.43;6.72;;;23.10;93.50;;;;;;5055781;28;20036;-54
2023/06/19 10:54:07;;;;;;;8.80;5.80;;;23.20;93.30;;;;;;5051545;28;20040;-53
2023/06/19 10:56:33;;;;;;;8.00;5.65;;;23.20;93.50;;;;;;5054394;28;20067;-56
2023/06/19 10:59:11;;;;;;;6.95;5.68;;;23.30;93.40;;;;;;5050112;28;20041;-51
2023/06/19 11:01:41;;;;;;;6.25;4.78;;;23.40;93.00;;;;;;5054318;28;20040;-53
2023/06/19 11:04:09;;;;;;;6.72;5.32;;;23.40;93.20;;;;;;5059068;28;20051;-56
2023/06/19 11:06:36;;;;;;;7.65;6.90;;;23.60;92.80;;;;;;5052992;28;20095;-52
2023/06/19 11:09:03;;;;;;;7.35;6.72;;;23.70;92.50;;;;;;5053289;28;20123;-50
2023/06/19 11:11:46;;;;;;;14.00;7.97;;;23.80;92.90;;;;;;5056480;28;20044;-54
2023/06/19 11:14:13;;;;;;;11.48;7.80;;;24.00;92.10;;;;;;5055383;28;20249;-49
2023/06/19 11:16:41;;;;;;;8.48;6.60;;;24.00;92.20;;;;;;5048640;28;20048;-55
2023/06/19 11:19:18;;;;;;;10.02;8.23;;;24.00;92.60;;;;;;5056687;28;20036;-54
2023/06/19 11:21:48;;;;;;;9.93;7.45;;;24.10;91.20;;;;;;5050819;28;20103;-49
2023/06/19 11:24:15;;;;;;;8.18;6.60;;;24.00;91.80;;;;;;5054115;28;20032;-51
2023/06/19 11:26:49;;;;;;;11.23;6.78;;;24.10;92.40;;;;;;5053683;28;20486;-50
2023/06/19 11:29:20;;;;;;;11.50;10.40;;;24.20;92.20;;;;;;5058240;28;20145;-54
2023/06/19 11:31:47;;;;;;;10.05;7.75;;;24.20;91.50;;;;;;5058405;28;20036;-50
2023/06/19 11:34:13;;;;;;;8.20;7.40;;;24.20;91.90;;;;;;5050364;28;20036;-51
2023/06/19 11:36:40;;;;;;;7.03;6.18;;;24.30;91.70;;;;;;5055261;28;20082;-52
2023/06/19 11:39:15;;;;;;;10.68;6.05;;;24.30;92.00;;;;;;5050934;28;20044;-55
2023/06/19 11:41:43;;;;;;;9.45;8.45;;;24.40;91.70;;;;;;5060869;28;20078;-52
2023/06/19 11:44:09;;;;;;;9.90;6.68;;;24.50;91.50;;;;;;5052640;28;20446;-50
2023/06/19 11:46:35;;;;;;;12.50;7.38;;;24.50;91.40;;;;;;5054854;28;20429;-52
2023/06/19 11:49:09;;;;;;;7.55;6.25;;;24.40;90.60;;;;;;5054025;28;20130;-50
2023/06/19 11:51:35;;;;;;;6.60;5.78;;;24.40;91.20;;;;;;5056913;28;20041;-50
2023/06/19 11:54:01;;;;;;;11.18;8.15;;;24.50;90.90;;;;;;5050532;28;20044;-55
2023/06/19 11:56:27;;;;;;;10.25;7.53;;;24.60;90.10;;;;;;5052919;28;20170;-54
2023/06/19 11:58:52;;;;;;;7.22;6.55;;;24.50;90.20;;;;;;5054594;28;20489;-52
2023/06/19 12:01:18;;;;;;;12.02;7.00;;;24.50;90.30;;;;;;5054770;28;20032;-54
2023/06/19 12:03:43;;;;;;;9.75;7.13;;;24.50;90.60;;;;;;5054336;28;20038;-53
2023/06/19 12:06:09;;;;;;;7.57;6.97;;;24.60;90.20;;;;;;5054042;28;20033;-54
2023/06/19 12:08:37;;;;;;;7.38;6.68;;;24.50;89.90;;;;;;5055350;28;21816;-52
2023/06/19 12:11:03;;;;;;;8.65;7.28;;;24.60;90.10;;;;;;5056689;28;20428;-51
2023/06/19 12:13:28;;;;;;;7.43;5.53;;;24.40;89.30;;;;;;5058242;28;20051;-54
2023/06/19 12:15:54;;;;;;;9.85;8.52;;;24.40;89.40;;;;;;5060264;28;20485;-54
2023/06/19 12:18:19;;;;;;;8.57;7.75;;;24.30;88.90;;;;;;5053780;28;20040;-55
2023/06/19 12:20:45;;;;;;;8.02;6.18;;;24.20;89.40;;;;;;5055682;28;20466;-50
2023/06/19 12:23:10;;;;;;;9.70;7.40;;;24.20;90.10;;;;;;5059705;28;20490;-55
2023/06/19 12:25:36;;;;;;;18.27;8.10;;;24.20;90.20;;;;;;5051700;28;20128;-50
2023/06/19 12:28:05;;;;;;;8.63;7.03;;;24.20;90.00;;;;;;5052607;28;20045;-51
2023/06/19 12:30:30;;;;;;;8.43;6.30;;;24.30;90.20;;;;;;5056013;28;20052;-54
2023/06/19 12:32:56;;;;;;;9.82;8.18;;;24.50;90.10;;;;;;5059575;28;20028;-50
2023/06/19 12:35:23;;;;;;;12.65;7.60;;;24.50;90.00;;;;;;5054623;28;20074;-52
2023/06/19 12:37:48;;;;;;;9.77;8.07;;;24.50;90.00;;;;;;5053842;28;20769;-53
2023/06/19 12:40:14;;;;;;;11.07;8.07;;;24.60;90.10;;;;;;5058869;28;20360;-55
2023/06/19 12:42:40;;;;;;;12.18;7.80;;;24.60;90.00;;;;;;5049796;28;20040;-52
2023/06/19 12:45:06;;;;;;;11.65;8.05;;;24.50;89.60;;;;;;5056184;28;20043;-51
2023/06/19 12:47:32;;;;;;;10.18;7.93;;;24.50;89.90;;;;;;5053567;28;20036;-53
2023/06/19 12:49:58;;;;;;;11.27;8.48;;;24.40;89.20;;;;;;5057109;28;20063;-55
2023/06/19 12:52:23;;;;;;;9.77;8.77;;;24.40;90.00;;;;;;5056158;28;20045;-54
2023/06/19 12:54:49;;;;;;;11.88;7.82;;;24.30;90.00;;;;;;5054576;28;20490;-50
2023/06/19 12:57:14;;;;;;;11.15;8.95;;;24.40;90.10;;;;;;5053240;28;20037;-51
2023/06/19 12:59:40;;;;;;;10.07;8.18;;;24.40;89.70;;;;;;5054873;28;20542;-52
2023/06/19 13:02:05;;;;;;;10.43;8.40;;;24.40;89.60;;;;;;5053862;28;20036;-50
2023/06/19 13:04:31;;;;;;;16.70;9.25;;;24.50;90.00;;;;;;5054426;28;20438;-53